sensor_id;sensor_type;location;lat;lon;timestamp;temperature;humidity
52387;DHT22;38317;53.084;6.960;2023-07-20T00:00:52;15.40;99.90
52387;DHT22;38317;53.084;6.960;2023-07-20T00:03:20;15.40;99.90
52387;DHT22;38317;53.084;6.960;2023-07-20T00:05:51;15.40;99.90
52387;DHT22;38317;53.084;6.960;2023-07-20T00:08:17;15.30;99.90
52387;DHT22;38317;53.084;6.960;2023-07-20T00:10:44;15.30;99.90
52387;DHT22;38317;53.084;6.960;2023-07-20T00:13:11;15.30;99.90
52387;DHT22;38317;53.084;6.960;2023-07-20T00:15:37;15.20;99.90
52387;DHT22;38317;53.084;6.960;2023-07-20T00:18:04;15.20;99.90
52387;DHT22;38317;53.084;6.960;2023-07-20T00:20:30;15.20;99.90
52387;DHT22;38317;53.084;6.960;2023-07-20T00:22:56;15.10;99.90
52387;DHT22;38317;53.084;6.960;2023-07-20T00:25:26;15.10;99.90
52387;DHT22;38317;53.084;6.960;2023-07-20T00:27:52;15.20;99.90
52387;DHT22;38317;53.084;6.960;2023-07-20T00:30:18;15.20;99.90
52387;DHT22;38317;53.084;6.960;2023-07-20T00:32:44;15.20;99.90
52387;DHT22;38317;53.084;6.960;2023-07-20T00:35:14;15.20;99.90
52387;DHT22;38317;53.084;6.960;2023-07-20T00:37:40;15.20;99.90
52387;DHT22;38317;53.084;6.960;2023-07-20T00:40:06;15.20;99.90
52387;DHT22;38317;53.084;6.960;2023-07-20T00:42:35;15.10;99.90
52387;DHT22;38317;53.084;6.960;2023-07-20T00:45:00;15.20;99.90
52387;DHT22;38317;53.084;6.960;2023-07-20T00:47:27;15.10;99.90
52387;DHT22;38317;53.084;6.960;2023-07-20T00:49:53;15.20;99.90
52387;DHT22;38317;53.084;6.960;2023-07-20T00:52:21;15.10;99.90
52387;DHT22;38317;53.084;6.960;2023-07-20T00:54:49;15.20;99.90
52387;DHT22;38317;53.084;6.960;2023-07-20T00:57:15;15.10;99.90
52387;DHT22;38317;53.084;6.960;2023-07-20T00:59:43;15.20;99.90
52387;DHT22;38317;53.084;6.960;2023-07-20T01:02:09;15.20;99.90
52387;DHT22;38317;53.084;6.960;2023-07-20T01:04:35;15.20;99.90
52387;DHT22;38317;53.084;6.960;2023-07-20T01:12:37;15.10;99.90
52387;DHT22;38317;53.084;6.960;2023-07-20T01:15:06;15.10;99.90
52387;DHT22;38317;53.084;6.960;2023-07-20T01:17:34;15.10;99.90
52387;DHT22;38317;53.084;6.960;2023-07-20T01:20:00;15.10;99.90
52387;DHT22;38317;53.084;6.960;2023-07-20T01:25:34;15.00;99.90
52387;DHT22;38317;53.084;6.960;2023-07-20T01:28:18;15.10;99.90
52387;DHT22;38317;53.084;6.960;2023-07-20T01:33:38;15.10;99.90
52387;DHT22;38317;53.084;6.960;2023-07-20T01:36:04;15.00;99.90
52387;DHT22;38317;53.084;6.960;2023-07-20T01:38:31;15.10;99.90
52387;DHT22;38317;53.084;6.960;2023-07-20T01:40:57;15.00;99.90
52387;DHT22;38317;53.084;6.960;2023-07-20T01:43:23;15.00;99.90
52387;DHT22;38317;53.084;6.960;2023-07-20T01:45:49;15.00;99.90
52387;DHT22;38317;53.084;6.960;2023-07-20T01:48:14;15.00;99.90
52387;DHT22;38317;53.084;6.960;2023-07-20T01:50:40;14.90;99.90
52387;DHT22;38317;53.084;6.960;2023-07-20T01:53:06;14.90;99.90
52387;DHT22;38317;53.084;6.960;2023-07-20T01:55:31;14.90;99.90
52387;DHT22;38317;53.084;6.960;2023-07-20T01:57:57;14.90;99.90
52387;DHT22;38317;53.084;6.960;2023-07-20T02:00:25;14.90;99.90
52387;DHT22;38317;53.084;6.960;2023-07-20T02:02:51;14.80;99.90
52387;DHT22;38317;53.084;6.960;2023-07-20T02:05:17;14.80;99.90
52387;DHT22;38317;53.084;6.960;2023-07-20T02:07:43;14.80;99.90
52387;DHT22;38317;53.084;6.960;2023-07-20T02:10:09;14.80;99.90
52387;DHT22;38317;53.084;6.960;2023-07-20T02:12:35;14.70;99.90
52387;DHT22;38317;53.084;6.960;2023-07-20T02:15:01;14.70;99.90
52387;DHT22;38317;53.084;6.960;2023-07-20T02:17:27;14.70;99.90
52387;DHT22;38317;53.084;6.960;2023-07-20T02:19:53;14.60;99.90
52387;DHT22;38317;53.084;6.960;2023-07-20T02:22:20;14.60;99.90
52387;DHT22;38317;53.084;6.960;2023-07-20T02:24:46;14.60;99.90
52387;DHT22;38317;53.084;6.960;2023-07-20T02:27:12;14.50;99.90
52387;DHT22;38317;53.084;6.960;2023-07-20T02:29:38;14.50;99.90
52387;DHT22;38317;53.084;6.960;2023-07-20T02:32:04;14.40;99.90
52387;DHT22;38317;53.084;6.960;2023-07-20T02:34:30;14.40;99.90
52387;DHT22;38317;53.084;6.960;2023-07-20T02:36:56;14.40;99.90
52387;DHT22;38317;53.084;6.960;2023-07-20T02:39:23;14.30;99.90
52387;DHT22;38317;53.084;6.960;2023-07-20T02:41:48;14.30;99.90
52387;DHT22;38317;53.084;6.960;2023-07-20T02:44:14;14.30;99.90
52387;DHT22;38317;53.084;6.960;2023-07-20T02:46:40;14.30;99.90
52387;DHT22;38317;53.084;6.960;2023-07-20T02:49:06;14.20;99.90
52387;DHT22;38317;53.084;6.960;2023-07-20T02:51:32;14.20;99.90
52387;DHT22;38317;53.084;6.960;2023-07-20T02:53:58;14.20;99.90
52387;DHT22;38317;53.084;6.960;2023-07-20T02:56:24;14.20;99.90
52387;DHT22;38317;53.084;6.960;2023-07-20T02:58:50;14.10;99.90
52387;DHT22;38317;53.084;6.960;2023-07-20T03:01:16;14.10;99.90
52387;DHT22;38317;53.084;6.960;2023-07-20T03:03:42;14.10;99.90
52387;DHT22;38317;53.084;6.960;2023-07-20T03:06:13;14.00;99.90
52387;DHT22;38317;53.084;6.960;2023-07-20T03:08:38;14.00;99.90
52387;DHT22;38317;53.084;6.960;2023-07-20T03:11:04;13.90;99.90
52387;DHT22;38317;53.084;6.960;2023-07-20T03:13:30;13.90;99.90
52387;DHT22;38317;53.084;6.960;2023-07-20T03:15:55;13.90;99.90
52387;DHT22;38317;53.084;6.960;2023-07-20T03:18:21;13.80;99.90
52387;DHT22;38317;53.084;6.960;2023-07-20T03:20:47;13.80;99.90
52387;DHT22;38317;53.084;6.960;2023-07-20T03:23:14;13.80;99.90
52387;DHT22;38317;53.084;6.960;2023-07-20T03:25:41;13.80;99.90
52387;DHT22;38317;53.084;6.960;2023-07-20T03:28:06;13.80;99.90
52387;DHT22;38317;53.084;6.960;2023-07-20T03:30:33;13.80;99.90
52387;DHT22;38317;53.084;6.960;2023-07-20T03:32:59;13.70;99.90
52387;DHT22;38317;53.084;6.960;2023-07-20T03:35:24;13.70;99.90
52387;DHT22;38317;53.084;6.960;2023-07-20T03:37:50;13.70;99.90
52387;DHT22;38317;53.084;6.960;2023-07-20T03:40:16;13.60;99.90
52387;DHT22;38317;53.084;6.960;2023-07-20T03:42:42;13.70;99.90
52387;DHT22;38317;53.084;6.960;2023-07-20T03:45:07;13.60;99.90
52387;DHT22;38317;53.084;6.960;2023-07-20T03:47:33;13.60;99.90
52387;DHT22;38317;53.084;6.960;2023-07-20T03:49:59;13.50;99.90
52387;DHT22;38317;53.084;6.960;2023-07-20T03:52:25;13.60;99.90
52387;DHT22;38317;53.084;6.960;2023-07-20T03:54:50;13.50;99.90
52387;DHT22;38317;53.084;6.960;2023-07-20T03:57:19;13.50;99.90
52387;DHT22;38317;53.084;6.960;2023-07-20T03:59:45;13.50;99.90
52387;DHT22;38317;53.084;6.960;2023-07-20T04:02:14;13.40;99.90
52387;DHT22;38317;53.084;6.960;2023-07-20T04:04:40;13.30;99.90
52387;DHT22;38317;53.084;6.960;2023-07-20T04:07:06;13.30;99.90
52387;DHT22;38317;53.084;6.960;2023-07-20T04:09:33;13.30;99.90
52387;DHT22;38317;53.084;6.960;2023-07-20T04:11:59;13.20;99.90
52387;DHT22;38317;53.084;6.960;2023-07-20T04:14:25;13.20;99.90
52387;DHT22;38317;53.084;6.960;2023-07-20T04:16:51;13.20;99.90
52387;DHT22;38317;53.084;6.960;2023-07-20T04:19:17;13.20;99.90
52387;DHT22;38317;53.084;6.960;2023-07-20T04:21:43;13.20;99.90
52387;DHT22;38317;53.084;6.960;2023-07-20T04:24:09;13.10;99.90
52387;DHT22;38317;53.084;6.960;2023-07-20T04:26:35;13.20;99.90
52387;DHT22;38317;53.084;6.960;2023-07-20T04:29:01;13.20;99.90
52387;DHT22;38317;53.084;6.960;2023-07-20T04:31:26;13.20;99.90
52387;DHT22;38317;53.084;6.960;2023-07-20T04:33:52;13.20;99.90
52387;DHT22;38317;53.084;6.960;2023-07-20T04:36:18;13.20;99.90
52387;DHT22;38317;53.084;6.960;2023-07-20T04:38:45;13.20;99.90
52387;DHT22;38317;53.084;6.960;2023-07-20T04:41:11;13.20;99.90
52387;DHT22;38317;53.084;6.960;2023-07-20T04:43:44;13.20;99.90
52387;DHT22;38317;53.084;6.960;2023-07-20T04:46:13;13.20;99.90
52387;DHT22;38317;53.084;6.960;2023-07-20T04:48:38;13.20;99.90
52387;DHT22;38317;53.084;6.960;2023-07-20T04:51:07;13.20;99.90
52387;DHT22;38317;53.084;6.960;2023-07-20T04:53:32;13.20;99.90
52387;DHT22;38317;53.084;6.960;2023-07-20T04:55:58;13.20;99.90
52387;DHT22;38317;53.084;6.960;2023-07-20T04:58:24;13.20;99.90
52387;DHT22;38317;53.084;6.960;2023-07-20T05:00:51;13.20;99.90
52387;DHT22;38317;53.084;6.960;2023-07-20T05:03:17;13.20;99.90
52387;DHT22;38317;53.084;6.960;2023-07-20T05:05:43;13.20;99.90
52387;DHT22;38317;53.084;6.960;2023-07-20T05:08:09;13.20;99.90
52387;DHT22;38317;53.084;6.960;2023-07-20T05:10:35;13.20;99.90
52387;DHT22;38317;53.084;6.960;2023-07-20T05:13:01;13.30;99.90
52387;DHT22;38317;53.084;6.960;2023-07-20T05:15:27;13.30;99.90
52387;DHT22;38317;53.084;6.960;2023-07-20T05:17:52;13.30;99.90
52387;DHT22;38317;53.084;6.960;2023-07-20T05:20:21;13.40;99.90
52387;DHT22;38317;53.084;6.960;2023-07-20T05:22:46;13.40;99.90
52387;DHT22;38317;53.084;6.960;2023-07-20T05:25:12;13.50;99.90
52387;DHT22;38317;53.084;6.960;2023-07-20T05:27:39;13.50;99.90
52387;DHT22;38317;53.084;6.960;2023-07-20T05:30:06;13.60;99.90
52387;DHT22;38317;53.084;6.960;2023-07-20T05:32:33;13.60;99.90
52387;DHT22;38317;53.084;6.960;2023-07-20T05:34:59;13.60;99.90
52387;DHT22;38317;53.084;6.960;2023-07-20T05:37:24;13.00;99.90
52387;DHT22;38317;53.084;6.960;2023-07-20T05:39:50;13.60;99.90
52387;DHT22;38317;53.084;6.960;2023-07-20T05:42:16;13.60;99.90
52387;DHT22;38317;53.084;6.960;2023-07-20T05:44:42;13.60;99.90
52387;DHT22;38317;53.084;6.960;2023-07-20T05:47:08;13.70;99.90
52387;DHT22;38317;53.084;6.960;2023-07-20T05:49:37;13.70;99.90
52387;DHT22;38317;53.084;6.960;2023-07-20T05:52:02;13.70;99.90
52387;DHT22;38317;53.084;6.960;2023-07-20T05:54:28;13.70;99.90
52387;DHT22;38317;53.084;6.960;2023-07-20T05:56:54;13.80;99.90
52387;DHT22;38317;53.084;6.960;2023-07-20T05:59:20;13.80;99.90
52387;DHT22;38317;53.084;6.960;2023-07-20T06:01:46;13.80;99.90
52387;DHT22;38317;53.084;6.960;2023-07-20T06:04:15;13.90;99.90
52387;DHT22;38317;53.084;6.960;2023-07-20T06:06:41;13.90;99.90
52387;DHT22;38317;53.084;6.960;2023-07-20T06:09:07;13.90;99.90
52387;DHT22;38317;53.084;6.960;2023-07-20T06:11:39;14.00;99.90
52387;DHT22;38317;53.084;6.960;2023-07-20T06:14:05;14.00;99.90
52387;DHT22;38317;53.084;6.960;2023-07-20T06:16:30;14.00;99.90
52387;DHT22;38317;53.084;6.960;2023-07-20T06:18:56;14.10;99.90
52387;DHT22;38317;53.084;6.960;2023-07-20T06:21:22;14.10;99.90
52387;DHT22;38317;53.084;6.960;2023-07-20T06:23:51;14.10;99.90
52387;DHT22;38317;53.084;6.960;2023-07-20T06:26:17;14.20;99.90
52387;DHT22;38317;53.084;6.960;2023-07-20T06:28:42;14.20;99.90
52387;DHT22;38317;53.084;6.960;2023-07-20T06:31:08;14.20;99.90
52387;DHT22;38317;53.084;6.960;2023-07-20T06:33:34;14.30;99.90
52387;DHT22;38317;53.084;6.960;2023-07-20T06:36:00;14.30;99.90
52387;DHT22;38317;53.084;6.960;2023-07-20T06:38:26;14.30;99.90
52387;DHT22;38317;53.084;6.960;2023-07-20T06:40:55;14.30;99.90
52387;DHT22;38317;53.084;6.960;2023-07-20T06:43:23;14.40;99.90
52387;DHT22;38317;53.084;6.960;2023-07-20T06:45:52;14.40;99.90
52387;DHT22;38317;53.084;6.960;2023-07-20T06:48:21;14.50;99.90
52387;DHT22;38317;53.084;6.960;2023-07-20T06:50:47;14.50;99.90
52387;DHT22;38317;53.084;6.960;2023-07-20T06:53:13;14.50;99.90
52387;DHT22;38317;53.084;6.960;2023-07-20T06:55:39;14.60;99.90
52387;DHT22;38317;53.084;6.960;2023-07-20T06:58:08;14.60;99.90
52387;DHT22;38317;53.084;6.960;2023-07-20T07:00:33;14.70;99.90
52387;DHT22;38317;53.084;6.960;2023-07-20T07:02:59;14.70;99.90
52387;DHT22;38317;53.084;6.960;2023-07-20T07:05:25;14.80;99.90
52387;DHT22;38317;53.084;6.960;2023-07-20T07:07:51;14.80;99.90
52387;DHT22;38317;53.084;6.960;2023-07-20T07:10:17;14.90;99.90
52387;DHT22;38317;53.084;6.960;2023-07-20T07:12:43;14.90;99.90
52387;DHT22;38317;53.084;6.960;2023-07-20T07:15:09;15.00;99.90
52387;DHT22;38317;53.084;6.960;2023-07-20T07:17:36;15.00;99.90
52387;DHT22;38317;53.084;6.960;2023-07-20T07:20:02;15.10;99.90
52387;DHT22;38317;53.084;6.960;2023-07-20T07:22:29;15.20;99.90
52387;DHT22;38317;53.084;6.960;2023-07-20T07:24:56;15.30;99.90
52387;DHT22;38317;53.084;6.960;2023-07-20T07:27:21;15.40;99.90
52387;DHT22;38317;53.084;6.960;2023-07-20T07:29:47;15.60;99.90
52387;DHT22;38317;53.084;6.960;2023-07-20T07:32:15;15.70;99.90
52387;DHT22;38317;53.084;6.960;2023-07-20T07:34:41;15.70;99.90
52387;DHT22;38317;53.084;6.960;2023-07-20T07:37:06;15.90;99.90
52387;DHT22;38317;53.084;6.960;2023-07-20T07:39:32;15.90;99.90
52387;DHT22;38317;53.084;6.960;2023-07-20T07:41:58;16.00;99.90
52387;DHT22;38317;53.084;6.960;2023-07-20T07:44:24;16.10;99.90
52387;DHT22;38317;53.084;6.960;2023-07-20T07:46:50;16.20;99.90
52387;DHT22;38317;53.084;6.960;2023-07-20T07:49:16;16.60;99.90
52387;DHT22;38317;53.084;6.960;2023-07-20T07:51:44;16.60;99.90
52387;DHT22;38317;53.084;6.960;2023-07-20T07:54:10;16.80;99.90
52387;DHT22;38317;53.084;6.960;2023-07-20T07:56:35;16.90;99.90
52387;DHT22;38317;53.084;6.960;2023-07-20T07:59:01;17.10;99.90
52387;DHT22;38317;53.084;6.960;2023-07-20T08:01:28;17.50;99.90
52387;DHT22;38317;53.084;6.960;2023-07-20T08:03:54;17.80;99.90
52387;DHT22;38317;53.084;6.960;2023-07-20T08:06:20;17.90;99.90
52387;DHT22;38317;53.084;6.960;2023-07-20T08:08:45;18.10;99.90
52387;DHT22;38317;53.084;6.960;2023-07-20T08:11:11;18.50;99.90
52387;DHT22;38317;53.084;6.960;2023-07-20T08:13:37;18.80;99.90
52387;DHT22;38317;53.084;6.960;2023-07-20T08:16:03;19.10;99.90
52387;DHT22;38317;53.084;6.960;2023-07-20T08:18:28;19.40;99.90
52387;DHT22;38317;53.084;6.960;2023-07-20T08:20:54;19.50;99.90
52387;DHT22;38317;53.084;6.960;2023-07-20T08:23:20;19.40;99.90
52387;DHT22;38317;53.084;6.960;2023-07-20T08:25:46;19.20;99.90
52387;DHT22;38317;53.084;6.960;2023-07-20T08:28:15;18.90;99.90
52387;DHT22;38317;53.084;6.960;2023-07-20T08:30:49;18.70;99.90
52387;DHT22;38317;53.084;6.960;2023-07-20T08:33:16;18.70;99.90
52387;DHT22;38317;53.084;6.960;2023-07-20T08:35:43;19.00;99.90
52387;DHT22;38317;53.084;6.960;2023-07-20T08:38:09;19.30;99.90
52387;DHT22;38317;53.084;6.960;2023-07-20T08:40:41;19.50;99.90
52387;DHT22;38317;53.084;6.960;2023-07-20T08:43:07;19.50;99.90
52387;DHT22;38317;53.084;6.960;2023-07-20T08:45:33;19.70;99.90
52387;DHT22;38317;53.084;6.960;2023-07-20T08:48:01;20.20;99.90
52387;DHT22;38317;53.084;6.960;2023-07-20T08:50:30;20.50;99.90
52387;DHT22;38317;53.084;6.960;2023-07-20T08:52:58;20.60;99.90
52387;DHT22;38317;53.084;6.960;2023-07-20T08:55:26;20.40;99.90
52387;DHT22;38317;53.084;6.960;2023-07-20T08:57:54;20.00;99.90
52387;DHT22;38317;53.084;6.960;2023-07-20T09:00:21;19.70;99.90
52387;DHT22;38317;53.084;6.960;2023-07-20T09:02:50;19.40;99.90
52387;DHT22;38317;53.084;6.960;2023-07-20T09:05:19;19.20;99.90
52387;DHT22;38317;53.084;6.960;2023-07-20T09:07:45;18.90;99.90
52387;DHT22;38317;53.084;6.960;2023-07-20T09:10:12;19.00;99.90
52387;DHT22;38317;53.084;6.960;2023-07-20T09:12:39;19.30;99.90
52387;DHT22;38317;53.084;6.960;2023-07-20T09:15:06;19.80;99.90
52387;DHT22;38317;53.084;6.960;2023-07-20T09:17:32;20.10;99.90
52387;DHT22;38317;53.084;6.960;2023-07-20T09:19:58;20.50;99.90
52387;DHT22;38317;53.084;6.960;2023-07-20T09:22:30;20.90;99.90
52387;DHT22;38317;53.084;6.960;2023-07-20T09:24:57;21.30;99.90
52387;DHT22;38317;53.084;6.960;2023-07-20T09:27:35;21.40;99.90
52387;DHT22;38317;53.084;6.960;2023-07-20T09:30:02;21.20;99.90
52387;DHT22;38317;53.084;6.960;2023-07-20T09:32:28;21.30;99.90
52387;DHT22;38317;53.084;6.960;2023-07-20T09:34:54;21.50;99.90
52387;DHT22;38317;53.084;6.960;2023-07-20T09:37:23;21.90;99.90
52387;DHT22;38317;53.084;6.960;2023-07-20T09:39:51;22.10;99.90
52387;DHT22;38317;53.084;6.960;2023-07-20T09:42:17;22.10;99.90
52387;DHT22;38317;53.084;6.960;2023-07-20T09:44:44;21.90;99.90
52387;DHT22;38317;53.084;6.960;2023-07-20T09:47:10;21.40;99.90
52387;DHT22;38317;53.084;6.960;2023-07-20T09:49:40;20.90;99.90
52387;DHT22;38317;53.084;6.960;2023-07-20T09:52:10;20.60;99.90
52387;DHT22;38317;53.084;6.960;2023-07-20T09:54:40;20.70;99.90
52387;DHT22;38317;53.084;6.960;2023-07-20T09:57:09;21.00;99.90
52387;DHT22;38317;53.084;6.960;2023-07-20T09:59:35;21.50;99.90
52387;DHT22;38317;53.084;6.960;2023-07-20T10:02:05;21.80;99.90
52387;DHT22;38317;53.084;6.960;2023-07-20T10:04:34;22.00;99.90
52387;DHT22;38317;53.084;6.960;2023-07-20T10:07:05;22.00;99.90
52387;DHT22;38317;53.084;6.960;2023-07-20T10:09:35;21.60;99.90
52387;DHT22;38317;53.084;6.960;2023-07-20T10:12:05;21.20;99.90
52387;DHT22;38317;53.084;6.960;2023-07-20T10:14:35;20.90;99.90
52387;DHT22;38317;53.084;6.960;2023-07-20T10:17:07;20.60;99.90
52387;DHT22;38317;53.084;6.960;2023-07-20T10:19:46;20.80;99.90
52387;DHT22;38317;53.084;6.960;2023-07-20T10:22:16;21.20;99.90
52387;DHT22;38317;53.084;6.960;2023-07-20T10:24:46;21.60;99.90
52387;DHT22;38317;53.084;6.960;2023-07-20T10:27:14;22.00;99.90
52387;DHT22;38317;53.084;6.960;2023-07-20T10:29:41;22.40;99.90
52387;DHT22;38317;53.084;6.960;2023-07-20T10:32:08;22.50;99.90
52387;DHT22;38317;53.084;6.960;2023-07-20T10:34:34;22.30;99.90
52387;DHT22;38317;53.084;6.960;2023-07-20T10:37:00;22.00;99.90
52387;DHT22;38317;53.084;6.960;2023-07-20T10:39:27;21.80;99.90
52387;DHT22;38317;53.084;6.960;2023-07-20T10:42:12;21.60;99.90
52387;DHT22;38317;53.084;6.960;2023-07-20T10:44:41;21.70;99.90
52387;DHT22;38317;53.084;6.960;2023-07-20T10:47:12;22.00;99.90
52387;DHT22;38317;53.084;6.960;2023-07-20T10:49:57;22.10;99.90
52387;DHT22;38317;53.084;6.960;2023-07-20T10:52:23;22.30;99.90
52387;DHT22;38317;53.084;6.960;2023-07-20T10:54:49;22.40;99.90
52387;DHT22;38317;53.084;6.960;2023-07-20T10:57:28;22.50;99.90
52387;DHT22;38317;53.084;6.960;2023-07-20T11:00:12;22.60;99.90
52387;DHT22;38317;53.084;6.960;2023-07-20T11:02:45;22.30;99.90
52387;DHT22;38317;53.084;6.960;2023-07-20T11:05:39;22.10;99.90
52387;DHT22;38317;53.084;6.960;2023-07-20T11:08:38;21.70;99.90
52387;DHT22;38317;53.084;6.960;2023-07-20T11:11:24;21.50;99.90
52387;DHT22;38317;53.084;6.960;2023-07-20T11:14:11;21.30;99.90
52387;DHT22;38317;53.084;6.960;2023-07-20T11:16:46;21.20;99.90
52387;DHT22;38317;53.084;6.960;2023-07-20T11:19:20;21.20;99.90
52387;DHT22;38317;53.084;6.960;2023-07-20T11:21:50;21.30;99.90
52387;DHT22;38317;53.084;6.960;2023-07-20T11:24:15;21.60;99.90
52387;DHT22;38317;53.084;6.960;2023-07-20T11:26:51;21.50;99.90
52387;DHT22;38317;53.084;6.960;2023-07-20T11:29:19;21.30;99.90
52387;DHT22;38317;53.084;6.960;2023-07-20T11:31:46;21.60;99.90
52387;DHT22;38317;53.084;6.960;2023-07-20T11:34:16;22.00;99.90
52387;DHT22;38317;53.084;6.960;2023-07-20T11:36:44;22.40;99.90
52387;DHT22;38317;53.084;6.960;2023-07-20T11:39:15;22.50;99.90
52387;DHT22;38317;53.084;6.960;2023-07-20T11:41:47;22.60;99.90
52387;DHT22;38317;53.084;6.960;2023-07-20T11:44:14;22.80;99.90
52387;DHT22;38317;53.084;6.960;2023-07-20T11:46:44;23.10;99.90
52387;DHT22;38317;53.084;6.960;2023-07-20T11:49:11;23.30;99.90
52387;DHT22;38317;53.084;6.960;2023-07-20T11:51:37;23.20;99.90
52387;DHT22;38317;53.084;6.960;2023-07-20T11:54:05;22.70;99.90
52387;DHT22;38317;53.084;6.960;2023-07-20T11:56:31;22.40;99.90
52387;DHT22;38317;53.084;6.960;2023-07-20T11:59:00;22.30;99.90
52387;DHT22;38317;53.084;6.960;2023-07-20T12:01:28;22.20;99.90
52387;DHT22;38317;53.084;6.960;2023-07-20T12:04:13;22.30;99.90
52387;DHT22;38317;53.084;6.960;2023-07-20T12:06:38;22.20;99.90
52387;DHT22;38317;53.084;6.960;2023-07-20T12:09:04;22.20;99.90
52387;DHT22;38317;53.084;6.960;2023-07-20T12:14:00;22.10;99.90
52387;DHT22;38317;53.084;6.960;2023-07-20T12:16:29;22.40;99.90
52387;DHT22;38317;53.084;6.960;2023-07-20T12:19:07;22.40;99.90
52387;DHT22;38317;53.084;6.960;2023-07-20T12:21:37;22.20;99.90
52387;DHT22;38317;53.084;6.960;2023-07-20T12:24:04;22.00;99.90
52387;DHT22;38317;53.084;6.960;2023-07-20T12:26:32;21.70;99.90
52387;DHT22;38317;53.084;6.960;2023-07-20T12:28:58;21.60;99.90
52387;DHT22;38317;53.084;6.960;2023-07-20T12:31:25;21.40;99.90
52387;DHT22;38317;53.084;6.960;2023-07-20T12:33:53;21.30;99.90
52387;DHT22;38317;53.084;6.960;2023-07-20T12:36:21;21.10;99.90
52387;DHT22;38317;53.084;6.960;2023-07-20T12:38:46;21.10;99.90
52387;DHT22;38317;53.084;6.960;2023-07-20T12:41:13;21.20;99.90
52387;DHT22;38317;53.084;6.960;2023-07-20T12:43:43;21.50;99.90
52387;DHT22;38317;53.084;6.960;2023-07-20T12:46:10;21.80;99.90
52387;DHT22;38317;53.084;6.960;2023-07-20T12:48:36;22.00;99.90
52387;DHT22;38317;53.084;6.960;2023-07-20T12:51:06;22.30;99.90
52387;DHT22;38317;53.084;6.960;2023-07-20T12:53:33;22.60;99.90
52387;DHT22;38317;53.084;6.960;2023-07-20T12:56:00;22.80;99.90
52387;DHT22;38317;53.084;6.960;2023-07-20T12:58:26;22.60;99.90
52387;DHT22;38317;53.084;6.960;2023-07-20T13:00:52;22.50;99.90
52387;DHT22;38317;53.084;6.960;2023-07-20T13:03:18;22.30;99.90
52387;DHT22;38317;53.084;6.960;2023-07-20T13:05:46;21.90;99.90
52387;DHT22;38317;53.084;6.960;2023-07-20T13:08:12;21.70;99.90
52387;DHT22;38317;53.084;6.960;2023-07-20T13:10:38;21.30;99.90
52387;DHT22;38317;53.084;6.960;2023-07-20T13:13:05;21.10;99.90
52387;DHT22;38317;53.084;6.960;2023-07-20T13:15:32;20.90;99.90
52387;DHT22;38317;53.084;6.960;2023-07-20T13:17:58;20.80;99.90
52387;DHT22;38317;53.084;6.960;2023-07-20T13:20:25;20.60;99.90
52387;DHT22;38317;53.084;6.960;2023-07-20T13:22:51;20.40;99.90
52387;DHT22;38317;53.084;6.960;2023-07-20T13:25:16;20.30;99.90
52387;DHT22;38317;53.084;6.960;2023-07-20T13:27:42;20.20;99.90
52387;DHT22;38317;53.084;6.960;2023-07-20T13:30:08;20.20;99.90
52387;DHT22;38317;53.084;6.960;2023-07-20T13:32:35;20.30;99.90
52387;DHT22;38317;53.084;6.960;2023-07-20T13:35:02;20.60;99.90
52387;DHT22;38317;53.084;6.960;2023-07-20T13:37:28;21.00;99.90
52387;DHT22;38317;53.084;6.960;2023-07-20T13:39:54;21.50;99.90
52387;DHT22;38317;53.084;6.960;2023-07-20T13:42:20;21.90;99.90
52387;DHT22;38317;53.084;6.960;2023-07-20T13:44:47;22.10;99.90
52387;DHT22;38317;53.084;6.960;2023-07-20T13:47:14;22.40;99.90
52387;DHT22;38317;53.084;6.960;2023-07-20T13:49:39;22.50;99.90
52387;DHT22;38317;53.084;6.960;2023-07-20T13:52:05;22.60;99.90
52387;DHT22;38317;53.084;6.960;2023-07-20T13:54:31;22.70;99.90
52387;DHT22;38317;53.084;6.960;2023-07-20T13:56:57;22.80;99.90
52387;DHT22;38317;53.084;6.960;2023-07-20T13:59:23;22.90;99.90
52387;DHT22;38317;53.084;6.960;2023-07-20T14:01:48;23.00;99.90
52387;DHT22;38317;53.084;6.960;2023-07-20T14:04:14;22.90;99.90
52387;DHT22;38317;53.084;6.960;2023-07-20T14:06:40;22.80;99.90
52387;DHT22;38317;53.084;6.960;2023-07-20T14:09:06;22.40;99.90
52387;DHT22;38317;53.084;6.960;2023-07-20T14:11:32;22.10;99.90
52387;DHT22;38317;53.084;6.960;2023-07-20T14:13:58;21.70;99.90
52387;DHT22;38317;53.084;6.960;2023-07-20T14:16:24;21.50;99.90
52387;DHT22;38317;53.084;6.960;2023-07-20T14:18:50;21.20;99.90
52387;DHT22;38317;53.084;6.960;2023-07-20T14:21:17;21.00;99.90
52387;DHT22;38317;53.084;6.960;2023-07-20T14:23:48;20.90;99.90
52387;DHT22;38317;53.084;6.960;2023-07-20T14:26:14;20.80;99.90
52387;DHT22;38317;53.084;6.960;2023-07-20T14:28:40;20.70;99.90
52387;DHT22;38317;53.084;6.960;2023-07-20T14:31:06;20.80;99.90
52387;DHT22;38317;53.084;6.960;2023-07-20T14:33:32;21.00;99.90
52387;DHT22;38317;53.084;6.960;2023-07-20T14:35:58;21.40;99.90
52387;DHT22;38317;53.084;6.960;2023-07-20T14:38:24;21.70;99.90
52387;DHT22;38317;53.084;6.960;2023-07-20T14:40:49;22.10;99.90
52387;DHT22;38317;53.084;6.960;2023-07-20T14:43:15;22.30;99.90
52387;DHT22;38317;53.084;6.960;2023-07-20T14:45:41;22.50;99.90
52387;DHT22;38317;53.084;6.960;2023-07-20T14:48:07;22.60;99.90
52387;DHT22;38317;53.084;6.960;2023-07-20T14:50:34;22.70;99.90
52387;DHT22;38317;53.084;6.960;2023-07-20T14:53:00;22.80;99.90
52387;DHT22;38317;53.084;6.960;2023-07-20T14:55:26;22.80;99.90
52387;DHT22;38317;53.084;6.960;2023-07-20T14:57:52;22.60;99.90
52387;DHT22;38317;53.084;6.960;2023-07-20T15:00:18;22.40;99.90
52387;DHT22;38317;53.084;6.960;2023-07-20T15:02:43;22.10;99.90
52387;DHT22;38317;53.084;6.960;2023-07-20T15:05:10;21.90;99.90
52387;DHT22;38317;53.084;6.960;2023-07-20T15:07:36;21.70;99.90
52387;DHT22;38317;53.084;6.960;2023-07-20T15:10:03;21.50;99.90
52387;DHT22;38317;53.084;6.960;2023-07-20T15:12:32;21.40;99.90
52387;DHT22;38317;53.084;6.960;2023-07-20T15:15:07;21.30;99.90
52387;DHT22;38317;53.084;6.960;2023-07-20T15:17:34;21.30;99.90
52387;DHT22;38317;53.084;6.960;2023-07-20T15:20:01;21.30;99.90
52387;DHT22;38317;53.084;6.960;2023-07-20T15:22:30;21.20;99.90
52387;DHT22;38317;53.084;6.960;2023-07-20T15:24:56;21.20;99.90
52387;DHT22;38317;53.084;6.960;2023-07-20T15:27:22;21.10;99.90
52387;DHT22;38317;53.084;6.960;2023-07-20T15:29:51;21.00;99.90
52387;DHT22;38317;53.084;6.960;2023-07-20T15:32:18;20.90;99.90
52387;DHT22;38317;53.084;6.960;2023-07-20T15:34:44;20.80;99.90
52387;DHT22;38317;53.084;6.960;2023-07-20T15:37:13;20.80;99.90
52387;DHT22;38317;53.084;6.960;2023-07-20T15:39:39;20.90;99.90
52387;DHT22;38317;53.084;6.960;2023-07-20T15:42:06;21.00;99.90
52387;DHT22;38317;53.084;6.960;2023-07-20T15:44:31;21.00;99.90